sensor_id;sensor_type;location;lat;lon;timestamp;temperature;humidity
35645;DHT22;21764;52.042;6.830;2022-09-27T00:04:53;10.70;99.90
35645;DHT22;21764;52.042;6.830;2022-09-27T00:09:55;10.70;99.90
35645;DHT22;21764;52.042;6.830;2022-09-27T00:14:55;10.70;99.90
35645;DHT22;21764;52.042;6.830;2022-09-27T00:19:58;10.60;99.90
35645;DHT22;21764;52.042;6.830;2022-09-27T00:24:59;10.60;99.90
35645;DHT22;21764;52.042;6.830;2022-09-27T00:30:00;10.60;99.90
35645;DHT22;21764;52.042;6.830;2022-09-27T00:35:01;10.60;99.90
35645;DHT22;21764;52.042;6.830;2022-09-27T00:40:02;10.70;99.90
35645;DHT22;21764;52.042;6.830;2022-09-27T00:45:06;10.70;99.90
35645;DHT22;21764;52.042;6.830;2022-09-27T00:50:29;10.60;99.90
35645;DHT22;21764;52.042;6.830;2022-09-27T00:55:57;10.70;99.90
35645;DHT22;21764;52.042;6.830;2022-09-27T01:01:03;10.60;99.90
35645;DHT22;21764;52.042;6.830;2022-09-27T01:06:07;10.60;99.90
35645;DHT22;21764;52.042;6.830;2022-09-27T01:16:33;10.60;99.90
35645;DHT22;21764;52.042;6.830;2022-09-27T01:27:11;10.60;99.90
35645;DHT22;21764;52.042;6.830;2022-09-27T01:32:20;10.60;99.90
35645;DHT22;21764;52.042;6.830;2022-09-27T01:37:35;10.60;99.90
35645;DHT22;21764;52.042;6.830;2022-09-27T01:48:06;10.50;99.90
35645;DHT22;21764;52.042;6.830;2022-09-27T01:53:17;10.50;99.90
35645;DHT22;21764;52.042;6.830;2022-09-27T01:58:33;10.40;99.90
35645;DHT22;21764;52.042;6.830;2022-09-27T02:03:39;10.30;99.90
35645;DHT22;21764;52.042;6.830;2022-09-27T02:08:58;10.30;99.90
35645;DHT22;21764;52.042;6.830;2022-09-27T02:14:13;10.20;99.90
35645;DHT22;21764;52.042;6.830;2022-09-27T02:24:56;9.70;99.90
35645;DHT22;21764;52.042;6.830;2022-09-27T02:30:09;9.60;99.90
35645;DHT22;21764;52.042;6.830;2022-09-27T02:35:22;9.40;99.90
35645;DHT22;21764;52.042;6.830;2022-09-27T02:40:32;9.40;99.90
35645;DHT22;21764;52.042;6.830;2022-09-27T02:45:50;9.30;99.90
35645;DHT22;21764;52.042;6.830;2022-09-27T03:06:54;8.70;99.90
35645;DHT22;21764;52.042;6.830;2022-09-27T03:11:55;8.60;99.90
35645;DHT22;21764;52.042;6.830;2022-09-27T03:16:56;8.60;99.90
35645;DHT22;21764;52.042;6.830;2022-09-27T03:21:57;8.60;99.90
35645;DHT22;21764;52.042;6.830;2022-09-27T03:26:58;8.40;99.90
35645;DHT22;21764;52.042;6.830;2022-09-27T03:31:58;8.30;99.90
35645;DHT22;21764;52.042;6.830;2022-09-27T03:36:59;8.30;99.90
35645;DHT22;21764;52.042;6.830;2022-09-27T03:42:01;8.30;99.90
35645;DHT22;21764;52.042;6.830;2022-09-27T03:47:02;8.20;99.90
35645;DHT22;21764;52.042;6.830;2022-09-27T03:52:03;8.10;99.90
35645;DHT22;21764;52.042;6.830;2022-09-27T03:57:03;8.00;99.90
35645;DHT22;21764;52.042;6.830;2022-09-27T04:02:04;7.90;99.90
35645;DHT22;21764;52.042;6.830;2022-09-27T04:13:03;8.10;99.90
35645;DHT22;21764;52.042;6.830;2022-09-27T04:18:06;8.20;99.90
35645;DHT22;21764;52.042;6.830;2022-09-27T04:23:07;8.40;99.90
35645;DHT22;21764;52.042;6.830;2022-09-27T04:28:07;8.30;99.90
35645;DHT22;21764;52.042;6.830;2022-09-27T04:33:08;8.40;99.90
35645;DHT22;21764;52.042;6.830;2022-09-27T04:38:09;8.70;99.90
35645;DHT22;21764;52.042;6.830;2022-09-27T04:43:09;8.70;99.90
35645;DHT22;21764;52.042;6.830;2022-09-27T04:48:10;8.70;99.90
35645;DHT22;21764;52.042;6.830;2022-09-27T04:53:17;8.60;99.90
35645;DHT22;21764;52.042;6.830;2022-09-27T04:58:18;8.60;99.90
35645;DHT22;21764;52.042;6.830;2022-09-27T05:03:18;8.80;99.90
35645;DHT22;21764;52.042;6.830;2022-09-27T05:08:19;8.90;99.90
35645;DHT22;21764;52.042;6.830;2022-09-27T05:13:20;8.70;99.90
35645;DHT22;21764;52.042;6.830;2022-09-27T05:18:21;8.50;99.90
35645;DHT22;21764;52.042;6.830;2022-09-27T05:23:22;8.70;99.90
35645;DHT22;21764;52.042;6.830;2022-09-27T05:28:23;8.90;99.90
35645;DHT22;21764;52.042;6.830;2022-09-27T05:33:23;9.00;99.90
35645;DHT22;21764;52.042;6.830;2022-09-27T05:38:24;9.00;99.90
35645;DHT22;21764;52.042;6.830;2022-09-27T05:43:25;9.00;99.90
35645;DHT22;21764;52.042;6.830;2022-09-27T05:48:27;9.00;99.90
35645;DHT22;21764;52.042;6.830;2022-09-27T05:53:29;8.70;99.90
35645;DHT22;21764;52.042;6.830;2022-09-27T05:58:31;8.70;99.90
35645;DHT22;21764;52.042;6.830;2022-09-27T06:03:33;8.60;99.90
35645;DHT22;21764;52.042;6.830;2022-09-27T06:08:37;8.80;99.90
35645;DHT22;21764;52.042;6.830;2022-09-27T06:13:39;8.80;99.90
35645;DHT22;21764;52.042;6.830;2022-09-27T06:18:41;8.60;99.90
35645;DHT22;21764;52.042;6.830;2022-09-27T06:23:42;8.70;99.90
35645;DHT22;21764;52.042;6.830;2022-09-27T06:28:43;10.60;99.90
35645;DHT22;21764;52.042;6.830;2022-09-27T06:33:44;16.90;99.90
35645;DHT22;21764;52.042;6.830;2022-09-27T06:38:45;20.00;99.90
35645;DHT22;21764;52.042;6.830;2022-09-27T06:43:48;22.50;99.90
35645;DHT22;21764;52.042;6.830;2022-09-27T06:48:48;19.30;99.90
35645;DHT22;21764;52.042;6.830;2022-09-27T06:53:49;15.80;99.90
35645;DHT22;21764;52.042;6.830;2022-09-27T06:58:50;16.20;99.90
35645;DHT22;21764;52.042;6.830;2022-09-27T07:04:10;20.40;99.90
35645;DHT22;21764;52.042;6.830;2022-09-27T07:09:16;22.00;99.90
35645;DHT22;21764;52.042;6.830;2022-09-27T07:14:17;23.70;99.00
35645;DHT22;21764;52.042;6.830;2022-09-27T07:19:18;25.40;91.30
35645;DHT22;21764;52.042;6.830;2022-09-27T07:24:22;21.80;95.40
35645;DHT22;21764;52.042;6.830;2022-09-27T07:29:22;23.00;92.30
35645;DHT22;21764;52.042;6.830;2022-09-27T07:34:23;21.40;95.20
35645;DHT22;21764;52.042;6.830;2022-09-27T07:39:25;21.60;95.20
35645;DHT22;21764;52.042;6.830;2022-09-27T07:44:26;28.10;84.50
35645;DHT22;21764;52.042;6.830;2022-09-27T07:49:26;25.60;80.80
35645;DHT22;21764;52.042;6.830;2022-09-27T07:54:27;23.10;91.30
35645;DHT22;21764;52.042;6.830;2022-09-27T07:59:28;20.00;95.40
35645;DHT22;21764;52.042;6.830;2022-09-27T08:04:29;17.20;99.90
35645;DHT22;21764;52.042;6.830;2022-09-27T08:09:30;15.50;99.90
35645;DHT22;21764;52.042;6.830;2022-09-27T08:14:31;14.20;99.90
35645;DHT22;21764;52.042;6.830;2022-09-27T08:19:32;13.80;99.90
35645;DHT22;21764;52.042;6.830;2022-09-27T08:24:33;13.40;99.90
35645;DHT22;21764;52.042;6.830;2022-09-27T08:29:34;13.30;99.90
35645;DHT22;21764;52.042;6.830;2022-09-27T08:34:35;13.90;99.90
35645;DHT22;21764;52.042;6.830;2022-09-27T08:39:36;14.20;99.90
35645;DHT22;21764;52.042;6.830;2022-09-27T08:54:54;14.30;99.90
35645;DHT22;21764;52.042;6.830;2022-09-27T09:05:07;14.20;99.90
35645;DHT22;21764;52.042;6.830;2022-09-27T09:16:20;14.40;99.90
35645;DHT22;21764;52.042;6.830;2022-09-27T09:26:38;15.80;99.90
35645;DHT22;21764;52.042;6.830;2022-09-27T09:42:30;15.50;99.90
35645;DHT22;21764;52.042;6.830;2022-09-27T09:47:47;16.40;99.90
35645;DHT22;21764;52.042;6.830;2022-09-27T09:53:43;17.20;99.90
35645;DHT22;21764;52.042;6.830;2022-09-27T09:58:52;18.80;99.90
35645;DHT22;21764;52.042;6.830;2022-09-27T10:03:54;17.80;99.90
35645;DHT22;21764;52.042;6.830;2022-09-27T10:08:56;15.30;99.90
35645;DHT22;21764;52.042;6.830;2022-09-27T10:13:57;14.60;99.90
35645;DHT22;21764;52.042;6.830;2022-09-27T10:19:02;14.50;99.90
35645;DHT22;21764;52.042;6.830;2022-09-27T10:24:12;14.30;99.90
35645;DHT22;21764;52.042;6.830;2022-09-27T10:29:21;19.50;99.90
35645;DHT22;21764;52.042;6.830;2022-09-27T10:34:37;22.00;99.90
35645;DHT22;21764;52.042;6.830;2022-09-27T10:39:39;19.50;99.90
35645;DHT22;21764;52.042;6.830;2022-09-27T10:44:40;16.80;99.90
35645;DHT22;21764;52.042;6.830;2022-09-27T10:49:42;16.10;99.90
35645;DHT22;21764;52.042;6.830;2022-09-27T10:55:34;17.00;99.90
35645;DHT22;21764;52.042;6.830;2022-09-27T11:00:34;17.20;99.90
35645;DHT22;21764;52.042;6.830;2022-09-27T11:05:37;16.90;99.90
35645;DHT22;21764;52.042;6.830;2022-09-27T11:10:39;16.40;99.90
35645;DHT22;21764;52.042;6.830;2022-09-27T11:16:26;16.10;99.90
35645;DHT22;21764;52.042;6.830;2022-09-27T11:26:43;14.60;99.90
35645;DHT22;21764;52.042;6.830;2022-09-27T11:37:29;15.60;99.90
35645;DHT22;21764;52.042;6.830;2022-09-27T11:48:22;15.50;99.90
35645;DHT22;21764;52.042;6.830;2022-09-27T12:09:32;13.00;99.90
35645;DHT22;21764;52.042;6.830;2022-09-27T12:14:39;12.80;99.90
35645;DHT22;21764;52.042;6.830;2022-09-27T12:19:48;12.90;99.90
35645;DHT22;21764;52.042;6.830;2022-09-27T12:24:51;13.50;99.90
35645;DHT22;21764;52.042;6.830;2022-09-27T12:29:53;14.30;99.90
35645;DHT22;21764;52.042;6.830;2022-09-27T12:35:06;15.10;99.90
35645;DHT22;21764;52.042;6.830;2022-09-27T12:45:50;15.60;99.90
35645;DHT22;21764;52.042;6.830;2022-09-27T12:51:20;15.40;99.90
35645;DHT22;21764;52.042;6.830;2022-09-27T13:02:12;15.50;99.90
35645;DHT22;21764;52.042;6.830;2022-09-27T13:12:35;16.00;99.90
35645;DHT22;21764;52.042;6.830;2022-09-27T13:22:40;15.90;99.90
35645;DHT22;21764;52.042;6.830;2022-09-27T13:27:41;15.50;99.90
35645;DHT22;21764;52.042;6.830;2022-09-27T13:38:21;15.30;99.90
35645;DHT22;21764;52.042;6.830;2022-09-27T13:43:42;15.20;99.90
35645;DHT22;21764;52.042;6.830;2022-09-27T13:48:56;15.30;99.90
35645;DHT22;21764;52.042;6.830;2022-09-27T13:54:04;15.50;99.90
35645;DHT22;21764;52.042;6.830;2022-09-27T13:59:09;15.70;99.90
35645;DHT22;21764;52.042;6.830;2022-09-27T14:04:25;15.70;99.90
35645;DHT22;21764;52.042;6.830;2022-09-27T14:09:37;15.70;99.90
35645;DHT22;21764;52.042;6.830;2022-09-27T14:14:40;15.50;99.90
35645;DHT22;21764;52.042;6.830;2022-09-27T14:19:43;15.40;99.90
35645;DHT22;21764;52.042;6.830;2022-09-27T14:24:47;15.30;99.90
35645;DHT22;21764;52.042;6.830;2022-09-27T14:30:00;15.00;99.90
35645;DHT22;21764;52.042;6.830;2022-09-27T14:41:19;14.90;99.90
35645;DHT22;21764;52.042;6.830;2022-09-27T14:46:03;15.10;99.90
35645;DHT22;21764;52.042;6.830;2022-09-27T14:56:18;15.00;99.90
35645;DHT22;21764;52.042;6.830;2022-09-27T15:01:21;14.80;99.90
35645;DHT22;21764;52.042;6.830;2022-09-27T15:06:23;14.60;99.90
35645;DHT22;21764;52.042;6.830;2022-09-27T15:11:24;14.20;99.90
35645;DHT22;21764;52.042;6.830;2022-09-27T15:16:26;14.10;99.90
35645;DHT22;21764;52.042;6.830;2022-09-27T15:21:33;13.90;99.90
35645;DHT22;21764;52.042;6.830;2022-09-27T15:26:38;13.70;99.90
35645;DHT22;21764;52.042;6.830;2022-09-27T15:31:39;13.70;99.90
35645;DHT22;21764;52.042;6.830;2022-09-27T15:42:10;13.60;99.90
35645;DHT22;21764;52.042;6.830;2022-09-27T15:52:51;13.40;99.90
35645;DHT22;21764;52.042;6.830;2022-09-27T15:57:55;13.20;99.90
35645;DHT22;21764;52.042;6.830;2022-09-27T16:02:59;13.10;99.90
35645;DHT22;21764;52.042;6.830;2022-09-27T16:08:00;13.00;99.90
35645;DHT22;21764;52.042;6.830;2022-09-27T16:13:00;12.70;99.90
35645;DHT22;21764;52.042;6.830;2022-09-27T16:18:01;12.80;99.90
35645;DHT22;21764;52.042;6.830;2022-09-27T16:23:01;12.50;99.90
35645;DHT22;21764;52.042;6.830;2022-09-27T16:28:04;12.20;99.90
35645;DHT22;21764;52.042;6.830;2022-09-27T16:33:04;12.10;99.90
35645;DHT22;21764;52.042;6.830;2022-09-27T16:38:06;11.90;99.90
35645;DHT22;21764;52.042;6.830;2022-09-27T16:43:06;11.80;99.90
35645;DHT22;21764;52.042;6.830;2022-09-27T16:48:07;11.60;99.90
35645;DHT22;21764;52.042;6.830;2022-09-27T16:53:08;11.60;99.90
35645;DHT22;21764;52.042;6.830;2022-09-27T16:58:08;11.60;99.90
35645;DHT22;21764;52.042;6.830;2022-09-27T17:03:09;11.50;99.90
35645;DHT22;21764;52.042;6.830;2022-09-27T17:08:10;11.40;99.90
35645;DHT22;21764;52.042;6.830;2022-09-27T17:13:10;11.20;99.90
35645;DHT22;21764;52.042;6.830;2022-09-27T17:18:11;11.00;99.90
35645;DHT22;21764;52.042;6.830;2022-09-27T17:23:12;10.90;99.90
35645;DHT22;21764;52.042;6.830;2022-09-27T17:28:13;10.60;99.90
35645;DHT22;21764;52.042;6.830;2022-09-27T17:33:13;10.50;99.90
35645;DHT22;21764;52.042;6.830;2022-09-27T17:38:14;10.50;99.90
35645;DHT22;21764;52.042;6.830;2022-09-27T17:43:15;10.50;99.90
35645;DHT22;21764;52.042;6.830;2022-09-27T17:48:16;10.40;99.90
35645;DHT22;21764;52.042;6.830;2022-09-27T17:53:35;10.20;99.90
35645;DHT22;21764;52.042;6.830;2022-09-27T17:58:35;10.30;99.90
35645;DHT22;21764;52.042;6.830;2022-09-27T18:03:36;10.20;99.90
35645;DHT22;21764;52.042;6.830;2022-09-27T18:08:37;10.30;99.90
35645;DHT22;21764;52.042;6.830;2022-09-27T18:13:39;10.40;99.90
35645;DHT22;21764;52.042;6.830;2022-09-27T18:18:41;10.40;99.90
35645;DHT22;21764;52.042;6.830;2022-09-27T18:23:42;10.50;99.90
35645;DHT22;21764;52.042;6.830;2022-09-27T18:28:43;10.40;99.90
35645;DHT22;21764;52.042;6.830;2022-09-27T18:33:44;10.40;99.90
35645;DHT22;21764;52.042;6.830;2022-09-27T18:38:50;10.40;99.90
35645;DHT22;21764;52.042;6.830;2022-09-27T18:43:54;10.50;99.90
35645;DHT22;21764;52.042;6.830;2022-09-27T18:48:58;10.60;99.90
35645;DHT22;21764;52.042;6.830;2022-09-27T18:54:01;10.50;99.90
35645;DHT22;21764;52.042;6.830;2022-09-27T18:59:02;10.50;99.90
35645;DHT22;21764;52.042;6.830;2022-09-27T19:04:02;10.60;99.90
35645;DHT22;21764;52.042;6.830;2022-09-27T19:09:04;10.60;99.90
35645;DHT22;21764;52.042;6.830;2022-09-27T19:14:05;10.70;99.90
35645;DHT22;21764;52.042;6.830;2022-09-27T19:19:06;10.60;99.90
35645;DHT22;21764;52.042;6.830;2022-09-27T19:24:07;10.50;99.90
35645;DHT22;21764;52.042;6.830;2022-09-27T19:29:07;10.40;99.90
35645;DHT22;21764;52.042;6.830;2022-09-27T19:34:08;10.40;99.90
35645;DHT22;21764;52.042;6.830;2022-09-27T19:39:10;10.40;99.90
35645;DHT22;21764;52.042;6.830;2022-09-27T19:44:11;10.40;99.90
35645;DHT22;21764;52.042;6.830;2022-09-27T19:49:12;10.30;99.90
35645;DHT22;21764;52.042;6.830;2022-09-27T19:54:13;10.30;99.90
35645;DHT22;21764;52.042;6.830;2022-09-27T19:59:14;10.00;99.90
35645;DHT22;21764;52.042;6.830;2022-09-27T20:04:14;10.20;99.90
35645;DHT22;21764;52.042;6.830;2022-09-27T20:09:15;10.20;99.90
35645;DHT22;21764;52.042;6.830;2022-09-27T20:14:16;9.90;99.90
35645;DHT22;21764;52.042;6.830;2022-09-27T20:19:17;10.00;99.90
35645;DHT22;21764;52.042;6.830;2022-09-27T20:24:18;10.20;99.90
35645;DHT22;21764;52.042;6.830;2022-09-27T20:29:20;10.10;99.90
35645;DHT22;21764;52.042;6.830;2022-09-27T20:34:20;10.10;99.90
35645;DHT22;21764;52.042;6.830;2022-09-27T20:39:21;10.00;99.90
35645;DHT22;21764;52.042;6.830;2022-09-27T20:44:23;10.00;99.90
35645;DHT22;21764;52.042;6.830;2022-09-27T20:49:24;10.00;99.90
35645;DHT22;21764;52.042;6.830;2022-09-27T20:54:24;9.90;99.90
35645;DHT22;21764;52.042;6.830;2022-09-27T20:59:26;10.00;99.90
35645;DHT22;21764;52.042;6.830;2022-09-27T21:04:26;9.70;99.90
35645;DHT22;21764;52.042;6.830;2022-09-27T21:09:29;9.50;99.90
35645;DHT22;21764;52.042;6.830;2022-09-27T21:14:30;9.40;99.90
35645;DHT22;21764;52.042;6.830;2022-09-27T21:19:31;9.50;99.90
35645;DHT22;21764;52.042;6.830;2022-09-27T21:24:34;9.40;99.90
35645;DHT22;21764;52.042;6.830;2022-09-27T21:29:34;9.40;99.90
35645;DHT22;21764;52.042;6.830;2022-09-27T21:34:35;9.40;99.90
35645;DHT22;21764;52.042;6.830;2022-09-27T21:39:36;9.40;99.90
35645;DHT22;21764;52.042;6.830;2022-09-27T21:44:36;9.40;99.90
35645;DHT22;21764;52.042;6.830;2022-09-27T21:49:37;9.30;99.90
35645;DHT22;21764;52.042;6.830;2022-09-27T21:54:40;9.30;99.90
35645;DHT22;21764;52.042;6.830;2022-09-27T21:59:40;9.30;99.90
35645;DHT22;21764;52.042;6.830;2022-09-27T22:04:41;9.20;99.90
35645;DHT22;21764;52.042;6.830;2022-09-27T22:09:42;9.20;99.90
35645;DHT22;21764;52.042;6.830;2022-09-27T22:14:42;9.10;99.90
35645;DHT22;21764;52.042;6.830;2022-09-27T22:19:43;9.10;99.90
35645;DHT22;21764;52.042;6.830;2022-09-27T22:24:43;9.20;99.90
35645;DHT22;21764;52.042;6.830;2022-09-27T22:29:44;9.20;99.90
35645;DHT22;21764;52.042;6.830;2022-09-27T22:34:45;9.20;99.90
35645;DHT22;21764;52.042;6.830;2022-09-27T22:39:45;9.10;99.90
35645;DHT22;21764;52.042;6.830;2022-09-27T22:44:46;8.90;99.90
35645;DHT22;21764;52.042;6.830;2022-09-27T22:49:47;8.70;99.90
35645;DHT22;21764;52.042;6.830;2022-09-27T22:54:47;8.50;99.90
35645;DHT22;21764;52.042;6.830;2022-09-27T22:59:48;8.30;99.90
35645;DHT22;21764;52.042;6.830;2022-09-27T23:04:48;8.20;99.90
35645;DHT22;21764;52.042;6.830;2022-09-27T23:09:49;8.10;99.90
35645;DHT22;21764;52.042;6.830;2022-09-27T23:14:50;8.00;99.90
35645;DHT22;21764;52.042;6.830;2022-09-27T23:19:50;7.90;99.90
35645;DHT22;21764;52.042;6.830;2022-09-27T23:24:51;7.90;99.90
35645;DHT22;21764;52.042;6.830;2022-09-27T23:29:52;8.20;99.90
35645;DHT22;21764;52.042;6.830;2022-09-27T23:34:52;8.60;99.90
35645;DHT22;21764;52.042;6.830;2022-09-27T23:39:53;8.70;99.90
35645;DHT22;21764;52.042;6.830;2022-09-27T23:44:53;8.80;99.90
35645;DHT22;21764;52.042;6.830;2022-09-27T23:49:56;8.70;99.90
35645;DHT22;21764;52.042;6.830;2022-09-27T23:54:57;8.50;99.90
35645;DHT22;21764;52.042;6.830;2022-09-27T23:59:58;8.50;99.90
